First-party and third-party cookies allow us to improve our services. By continuing to browse our website, you agree to our use of cookies. More information Aceptar
toghether beyond standars
MOT stations / Station locator

Mobile unit itinerary

PROVINCIA COMARCA LOCALIDAD FECHAS INSPECCIÓN HORARIO TELÉFONO
DESDE HASTA MAÑANAS TARDES
HUESCA HOYA DE HUESCA ENA 01/10/2020 01/10/2020 A las 08:00   974211476
HUESCA HOYA DE HUESCA CENTENERO 01/10/2020 01/10/2020 A las 10:30   974211476
HUESCA HOYA DE HUESCA SALINAS DE JACA 01/10/2020 01/10/2020 A las 12:30   974211476
HUESCA HOYA DE HUESCA SABAYES 02/10/2020 02/10/2020 A las 08:00   974211476
HUESCA HOYA DE HUESCA LUPIÑEN 05/10/2020 05/10/2020 A las 08:00   974211476
HUESCA HOYA DE HUESCA SESA 06/10/2020 06/10/2020 A las 08:00   974211476
HUESCA MONEGROS TARDIENTA 07/10/2020 07/10/2020 A las 08:00   974211476
HUESCA HOYA DE HUESCA ALCALA DE GURREA 08/10/2020 08/10/2020 A las 08:00   974211476
HUESCA HOYA DE HUESCA ORTILLA 09/10/2020 09/10/2020 A las 08:00   974211476
HUESCA HOYA DE HUESCA SAN JORGE 19/10/2020 19/10/2020 A las 08:00   974211476
HUESCA HOYA DE HUESCA BANARIES 19/10/2020 19/10/2020 A las 11:00   974211476
HUESCA HOYA DE HUESCA FRAELLA 20/10/2020 20/10/2020 A las 08:00   974211476
HUESCA HOYA DE HUESCA USON 20/10/2020 20/10/2020 A las 11:00   974211476
HUESCA HOYA DE HUESCA LOSCORRALES 21/10/2020 21/10/2020 A las 08:00   974211476
HUESCA HOYA DE HUESCA LA PAUL 22/10/2020 22/10/2020 A las 08:00   974211476
HUESCA HOYA DE HUESCA MONTMESA 23/10/2020 23/10/2020 A las 08:00   974211476
HUESCA HOYA DE HUESCA EL TEMPLE 26/10/2020 26/10/2020 A las 08:00   974211476
HUESCA HOYA DE HUESCA CUARTE 26/10/2020 26/10/2020 A las 13:00   974211476
HUESCA MONEGROS TORRES DE BARBUES 27/10/2020 27/10/2020 A las 08:00   974211476
HUESCA MONEGROS BARBUES 27/10/2020 27/10/2020 A las 11:00   974211476
HUESCA MONEGROS MONTESUSIN 28/10/2020 28/10/2020 A las 08:00   974211476
HUESCA HOYA DE HUESCA GURREA DE GALLEGO 29/10/2020 29/10/2020 A las 08:00   974211476
HUESCA HOYA DE HUESCA VALSALADA 30/10/2020 30/10/2020 A las 08:00   974211476
ZARAGOZA CINCO VILLAS SANTA ANASTASIA 01/10/2020 01/10/2020 A las 8.30   974481919
ZARAGOZA CINCO VILLAS VALAREÑA 01/10/2020 01/10/2020 A las 11.30   974481919
ZARAGOZA CINCO VILLAS LAYANA 01/10/2020 01/10/2020 A las 13.00   974481919
ZARAGOZA CINCO VILLAS TAUSTE 02/10/2020 02/10/2020 De 8.00 a 14.30   974481919
ZARAGOZA CINCO VILLAS PINSORO 06/10/2020 06/10/2020 De 8.00 a 12.30   974481919
ZARAGOZA CINCO VILLAS RIVAS 06/10/2020 06/10/2020 A las 13.00   974481919
ZARAGOZA CINCO VILLAS FARASDUES 06/10/2020 06/10/2020 A las 14.00   974481919
ZARAGOZA CINCO VILLAS EL BAYO 07/10/2020 07/10/2020 De 8.30 a 13.30   974481919
ZARAGOZA CAMPO DE BORJA POZUELO 08/10/2020 09/10/2020 De 8.00 a 14.30   974481919
ZARAGOZA CAMPO DE BORJA FRESCANO 14/10/2020 14/10/2020 De 8.30 a 13.30   974481919
ZARAGOZA CAMPO DE BORJA AGON 15/10/2020 15/10/2020 De 8.00 a 12.30   974481919
ZARAGOZA CAMPO DE BORJA BISIMBRE 15/10/2020 15/10/2020 De 13.00 a 15.00   974481919
ZARAGOZA CINCO VILLAS BARDENA 16/10/2020 16/10/2020 De 8.00 a 10.30   974481919
ZARAGOZA CINCO VILLAS EL SABINAR 16/10/2020 16/10/2020 De 11.00 a 13.30   974481919
ZARAGOZA CAMPO DE BORJA FUENDEJALON 19/10/2020 21/10/2020 De 8.00 a 14.30   974481919
ZARAGOZA CAMPO DE BORJA AINZON 22/10/2020 23/10/2020 De 8.00 a 14.30   974481919
PARTIDA DE ALGOROS  ELX 21/09/2020 A partir de 09:00 h. 902 196 196      
PARTIDA DE ALGOROS  ELX 22/09/2020 A partir de 09:00 h. 902 196 196      
PARTIDA DE ALGOROS  ELX 23/09/2020 A partir de 09:00 h. 902 196 196      
PARTIDA DE ALGOROS  ELX 24/09/2020 A partir de 09:00 h. 902 196 196      
BENIFATO ALICANTE 25/09/2020 A partir de 10:00 h. 902196196      
BENIMANTELL  ALICANTE 25/09/2020 A partir de 16:00 h. 902 196 196      
TORREMANZANAS ALICANTE 28/09/2020 A partir de 10.00 h. 902 196 196      
MUTXAMEL  ALICANTE 29/09/2020 A partir de 12.00 h. 902 196 196      
ALPATRO - VALL DE GALLINERA  ALICANTE 01/10/2020 A partir de 12:00 h. 902 196 196      
BENISIVA - VALL DE GALLINERA  ALICANTE 02/10/2020 A partir de 10:00 h. 902 196 196      
CASTELL DE CASTELLS  ALICANTE 02/10/2020 A partir de 17:00 h. 902 196 196      
CALLOSA D´EN SARRIA  ALICANTE 05/10/2010 A partir de 10:00 h. 902 196 196      
CALLOSA D´EN SARRIA  ALICANTE 06/10/2020 A partir de 10:00 h. 902 196 196      
ORXETA ALICANTE 06/10/2020 A partir de 16:30 h. 902 196 196      
FINESTRAT ALICANTE 07/10/2020 A partir de 10:30 h. 902 196 196      
BUSOT  ALICANTE 07/10/2020 A partir de 16:30 h. 902 196 196      
TORRELLANO  ELX 08/10/2020 A partir de 09:00 h. 902 196 196      
TORRELLANO  ELX 13/10/2020 A partir de 09:00 h. 902 196 196      
XIXONA ALICANTE 15/10/2020 A partir de 09:00 h. 902 196 196      
HUESCA ALTO GALLEGO BIESCAS 03/11/2020 03/11/2020 De 9.00 a 13.00   974481919
HUESCA ALTO GALLEGO GAVIN 03/11/2020 03/11/2020   A las 15.00 974481919
HUESCA LA JACETANIA VILLAREAL 04/11/2020 04/11/2020 De 9.00 a 11.30   974481919
HUESCA LA JACETANIA BINIES 04/11/2020 04/11/2020 A las 12.30   974481919
HUESCA LA JACETANIA MARTES 04/11/2020 04/11/2020   De 15.30 a 17.00 974481919
HUESCA LA JACETANIA BAILO 05/11/2020 05/11/2020 De 9.00 a 12.30   974481919
HUESCA LA JACETANIA LARUES 05/11/2020 05/11/2020   De 14.30 a 17.00 974481919
HUESCA LA JACETANIA BANAGUAS 06/11/2020 06/11/2020 De 9.00 a 10.00   974481919
HUESCA LA JACETANIA ASIESO 06/11/2020 06/11/2020 De 10.30 a 12.00   974481919
HUESCA LA JACETANIA ULLE 06/11/2020 06/11/2020 A las 13.00   974481919
HUESCA LA JACETANIA ARAGUES DEL PUERTO 09/11/2020 09/11/2020 De 09.30 a 11.00   974481919
HUESCA LA JACETANIA ANSO 09/11/2020 09/11/2020 A las 12.30   974481919
HUESCA LA JACETANIA SOMANES 09/11/2020 09/11/2020   A las 15.30 974481919
HUESCA LA JACETANIA STA CILIA 10/11/2020 10/11/2020 De 9.00 a 13.00   974481919
HUESCA LA JACETANIA STA CRUZ SEROS 10/11/2020 10/11/2020   De 14.30 a 16.30 974481919
HUESCA ALTO GALLEGO ESCUER 11/11/2020 11/11/2020 De 9.30 a 10.30   974481919
HUESCA ALTO GALLEGO OLIVAN 11/11/2020 11/11/2020 De 11.30 a 12.30   974481919
HUESCA ALTO GALLEGO SENEGUE 11/11/2020 11/11/2020 De 13.30 a 14.30   974481919
HUESCA ALTO GALLEGO OROS ALTO 12/11/2020 12/11/2020 De 9.00 a 10.30   974481919
HUESCA ALTO GALLEGO OROS BAJO 12/11/2020 12/11/2020 De 11.00 a 12.00   974481919
HUESCA ALTO GALLEGO CALDEARENAS 12/11/2020 12/11/2020   De 14.00 a 17.30 974481919
HUESCA ALTO GALLEGO LARREDE 13/11/2020 13/11/2020 A las 9.00   974481919
HUESCA ALTO GALLEGO OSAN 13/11/2020 13/11/2020 A las 10.30   974481919
HUESCA ALTO GALLEGO YEBRA DE BASA 13/11/2020 13/11/2020 A las 12.00   974481919
HUESCA ALTO GALLEGO ISUN DE BASA 13/11/2020 13/11/2020 A las 13.30   974481919
HUESCA LA JACETANIA CASTIELLO 16/11/2020 16/11/2020 De 9.00 a 11.00   974481919
HUESCA LA JACETANIA VILLANUA 16/11/2020 16/11/2020 De 11.30 a 13.00   974481919
HUESCA LA JACETANIA CANFRANC 16/11/2020 16/11/2020   A las 15.30 974481919
HUESCA LA JACETANIA ABENA 17/11/2020 17/11/2020 De 8.30 a 10.00   974481919
HUESCA LA JACETANIA NAVASA 17/11/2020 17/11/2020 De 11.00 a 13.00   974481919
HUESCA LA JACETANIA BAROS 17/11/2020 17/11/2020   De 15.00 a 16.00 974481919
HUESCA LA JACETANIA BERDUN 18/11/2020 18/11/2020 De 9.00 a 14.30   974481919
HUESCA LA JACETANIA HECHO 19/11/2020 19/11/2020 De 9.00 a 14.00   974481919
HUESCA LA JACETANIA ARA-BINUE 20/11/2020 20/11/2020 De 9.00 a 12.30   974481919
HUESCA LA JACETANIA PUENTE LA REINA 24/11/2020 24/11/2020 De 8.30 a 12.00   974481919
HUESCA LA JACETANIA SANTA ENGRACIA 25/11/2020 25/11/2020   De 13.30 a 17.00 974481919
HUESCA LA JACETANIA GUASILLO 25/11/2020 25/11/2020 A las 9.00   974481919
HUESCA LA JACETANIA GUASA 25/11/2020 25/11/2020 A las 11.00   974481919
HUESCA LA JACETANIA ESPUENDOLAS 25/11/2020 25/11/2020 A las 13.00   974481919
HUESCA LA JACETANIA MARTILLUE 25/11/2020 25/11/2020 A  las 14.30   974481919
HUESCA HOYA DE HUESCA SANTA ENGRACIA 09/11/2020 09/11/2020 A las 8:00   974211476
HUESCA HOYA DE HUESCA SARSAMARCUELLO 09/11/2020 09/11/2020 A las 11:00   974211476
HUESCA HOYA DE HUESCA LINAS DE MARCUELLO 09/11/2020 09/11/2020 A las 13:00   974211476
HUESCA HOYA DE HUESCA VALFONDA DE SANTA ANA 10/11/2020 10/11/2020 A las 8:00   974211476
HUESCA HOYA DE HUESCA FRULA 11/11/2020 11/11/2020 A las 8:00   974211476
HUESCA HOYA DE HUESCA GARISA ALTA 12/11/2020 12/11/2020 A las 8:00   974211476
HUESCA HOYA DE HUESCA CALLEN 12/11/2020 12/11/2020 A las 11:00   974211476
HUESCA HOYA DE HUESCA ARTASONA 13/11/2020 13/11/2020 A las 8:00   974211476
HUESCA HOYA DE HUESCA ALMUDEVAR 16/11/2020 17/11/2020 A las 8:00   974211476
HUESCA HOYA DE HUESCA ALMUNIENTE 18/11/2020 18/11/2020 A las 8:00   974211476
HUESCA MONEGROS HUERTO 19/11/2020 19/11/2020 A las 8:00   974211476
HUESCA HOYA DE HUESCA VENTA DE BALLERIAS 19/11/2020 19/11/2020 A las 11:00   974211476
HUESCA MONEGROS SENES DE ALCUBIERRE 20/11/2020 20/11/2020 A las 8:00   974211476
HUESCA MONEGROS TORRALBA DE ARAGON 23/11/2020 23/11/2020 A las 8:00   974211476
HUESCA MONEGROS GRAÑEN 24/11/2020 24/11/2020 A las 8:00   974211476
HUESCA MONEGROS ROBRES 25/11/2020 26/11/2020 A las 8:00   974211476
HUESCA MONEGROS CURBE 27/11/2020 27/11/2020 A las 8:00   974211476
Subscribe to the Applus+ Iteuve newsletter
A+ Iteuve at your service

Estamos a su disposición para resolver sus dudas y sugerencias en nuestros canales de Twitter y Facebook. Le esperamos.